Time;durP1;ratioP1;P1;durP2;ratioP2;P2;SDS_P1;SDS_P2;PMS_P1;PMS_P2;Temp;Humidity;BMP_temperature;BMP_pressure;BME280_temperature;BME280_humidity;BME280_pressure;Samples;Min_cycle;Max_cycle;Signal;HPM_P1;HPM_P2
2023/05/03 00:00:25;;;;;;;3.83;2.30;;;27.10;99.90;;;;;;4988060;23;20031;-56
2023/05/03 00:02:52;;;;;;;4.13;2.70;;;27.10;99.90;;;;;;4951939;29;20520;-58
2023/05/03 00:05:19;;;;;;;5.28;2.38;;;27.10;99.90;;;;;;4962888;28;20417;-59
2023/05/03 00:07:45;;;;;;;3.50;2.50;;;27.10;99.90;;;;;;4973405;28;20039;-59
2023/05/03 00:10:12;;;;;;;4.20;2.50;;;27.10;99.90;;;;;;4973687;28;20416;-59
2023/05/03 00:12:42;;;;;;;4.13;2.53;;;27.10;99.90;;;;;;4970821;28;20054;-59
2023/05/03 00:15:09;;;;;;;2.75;2.30;;;27.10;99.90;;;;;;4970534;28;20035;-59
2023/05/03 00:17:38;;;;;;;3.63;2.53;;;27.10;99.90;;;;;;4973520;28;20385;-58
2023/05/03 00:20:04;;;;;;;3.75;2.88;;;27.10;99.90;;;;;;4973140;28;20046;-58
2023/05/03 00:22:31;;;;;;;3.63;2.53;;;27.10;99.90;;;;;;4972182;28;20023;-58
2023/05/03 00:24:58;;;;;;;4.47;2.08;;;27.10;99.90;;;;;;4972797;28;20031;-58
2023/05/03 00:27:24;;;;;;;;;;;27.10;99.90;;;;;;4973685;28;20054;-58
2023/05/03 00:29:51;;;;;;;5.07;2.45;;;27.10;99.90;;;;;;4973342;28;19906;-58
2023/05/03 00:32:17;;;;;;;3.63;2.63;;;27.10;99.90;;;;;;4973447;28;20035;-59
2023/05/03 00:34:43;;;;;;;4.90;2.97;;;27.10;99.90;;;;;;4973398;28;20037;-58
2023/05/03 00:37:09;;;;;;;3.30;2.75;;;27.10;99.90;;;;;;4973424;28;20026;-59
2023/05/03 00:39:35;;;;;;;4.07;2.22;;;27.10;99.90;;;;;;4964502;28;20031;-58
2023/05/03 00:42:03;;;;;;;4.00;2.80;;;27.10;99.90;;;;;;4935918;29;20043;-59
2023/05/03 00:44:29;;;;;;;3.60;2.50;;;27.00;99.90;;;;;;4949085;29;20058;-58
2023/05/03 00:46:55;;;;;;;3.63;2.53;;;27.00;99.90;;;;;;4953321;28;20019;-59
2023/05/03 00:49:24;;;;;;;4.80;3.15;;;27.00;99.90;;;;;;4953340;28;20035;-59
2023/05/03 00:51:51;;;;;;;3.55;2.45;;;27.00;99.90;;;;;;4953278;28;20035;-59
2023/05/03 00:54:17;;;;;;;4.00;2.70;;;27.00;99.90;;;;;;4953083;28;20466;-59
2023/05/03 00:56:44;;;;;;;4.50;2.78;;;27.00;99.90;;;;;;4953528;28;20158;-60
2023/05/03 00:59:11;;;;;;;3.70;2.60;;;27.00;99.90;;;;;;4953422;28;20425;-59
2023/05/03 01:01:37;;;;;;;3.88;2.58;;;27.00;99.90;;;;;;4992600;23;20054;-49
2023/05/03 01:04:05;;;;;;;3.90;2.70;;;27.00;99.90;;;;;;4992988;28;20041;-49
2023/05/03 01:07:02;;;;;;;5.30;3.28;;;27.00;99.90;;;;;;4992340;28;20489;-49
2023/05/03 01:09:27;;;;;;;;;;;27.00;99.90;;;;;;4979470;28;20043;-49
2023/05/03 01:12:11;;;;;;;3.40;2.67;;;27.00;99.90;;;;;;4992196;28;20000;-49
2023/05/03 01:14:39;;;;;;;4.18;3.00;;;27.00;99.90;;;;;;4992397;28;20077;-52
2023/05/03 01:17:11;;;;;;;5.28;2.90;;;27.00;99.90;;;;;;4992054;28;20080;-52
2023/05/03 01:19:44;;;;;;;4.88;2.90;;;27.00;99.90;;;;;;4992237;28;20030;-51
2023/05/03 01:22:36;;;;;;;4.90;3.17;;;27.00;99.90;;;;;;4992038;28;20022;-51
2023/05/03 01:25:06;;;;;;;4.22;2.90;;;27.00;99.90;;;;;;4991913;28;20022;-51
2023/05/03 01:27:32;;;;;;;5.82;3.55;;;27.00;99.90;;;;;;4991979;28;20030;-50
2023/05/03 01:29:58;;;;;;;4.95;3.13;;;27.00;99.90;;;;;;4991929;28;20107;-50
2023/05/03 01:32:46;;;;;;;5.22;3.42;;;26.90;99.90;;;;;;4994956;28;20065;-50
2023/05/03 01:35:22;;;;;;;4.95;3.03;;;27.00;99.90;;;;;;5008713;28;20018;-50
2023/05/03 01:37:49;;;;;;;4.57;3.00;;;27.00;99.90;;;;;;4994803;28;20484;-51
2023/05/03 01:40:18;;;;;;;5.93;3.70;;;27.00;99.90;;;;;;4998597;28;20053;-50
2023/05/03 01:42:44;;;;;;;5.90;3.42;;;27.00;99.90;;;;;;5005371;28;20106;-50
2023/05/03 01:45:11;;;;;;;5.30;3.90;;;27.00;99.90;;;;;;4995602;28;20069;-49
2023/05/03 01:47:37;;;;;;;4.97;3.20;;;26.90;99.90;;;;;;4995293;28;20575;-49
2023/05/03 01:50:03;;;;;;;5.45;3.13;;;26.90;99.90;;;;;;4994407;28;20101;-48
2023/05/03 01:52:29;;;;;;;6.57;3.92;;;26.90;99.90;;;;;;4995410;28;20109;-47
2023/05/03 01:54:55;;;;;;;5.40;3.45;;;26.90;99.90;;;;;;4995630;28;20058;-47
2023/05/03 01:57:21;;;;;;;5.18;3.70;;;26.90;99.90;;;;;;4995714;28;20033;-48
2023/05/03 01:59:47;;;;;;;5.53;3.60;;;26.90;99.90;;;;;;4995341;28;20011;-49
2023/05/03 02:02:14;;;;;;;6.28;4.13;;;26.90;99.90;;;;;;5009853;23;20062;-59
2023/05/03 02:04:39;;;;;;;5.53;3.45;;;26.90;99.90;;;;;;4993954;28;20026;-59
2023/05/03 02:07:05;;;;;;;5.75;3.60;;;26.90;99.90;;;;;;4995232;28;20030;-61
2023/05/03 02:09:31;;;;;;;3.80;3.00;;;26.90;99.90;;;;;;4995104;28;20032;-60
2023/05/03 02:11:57;;;;;;;5.28;3.67;;;26.90;99.90;;;;;;4995029;28;20106;-59
2023/05/03 02:14:22;;;;;;;5.03;3.72;;;26.90;99.90;;;;;;4994098;28;20027;-58
2023/05/03 02:16:48;;;;;;;5.57;3.40;;;26.90;99.90;;;;;;4994943;28;20484;-60
2023/05/03 02:19:14;;;;;;;4.28;3.53;;;26.90;99.90;;;;;;4994689;28;20125;-60
2023/05/03 02:21:40;;;;;;;5.30;3.67;;;26.90;99.90;;;;;;4995231;28;20402;-60
2023/05/03 02:24:06;;;;;;;5.93;3.55;;;26.90;99.90;;;;;;4994590;28;20033;-60
2023/05/03 02:26:32;;;;;;;4.88;3.00;;;26.90;99.90;;;;;;4994579;28;20025;-60
2023/05/03 02:28:58;;;;;;;6.13;3.30;;;26.90;99.90;;;;;;4994801;28;20023;-60
2023/05/03 02:31:25;;;;;;;5.78;3.50;;;26.80;99.90;;;;;;4994704;28;20113;-60
2023/05/03 02:33:51;;;;;;;5.32;3.10;;;26.80;99.90;;;;;;4994697;28;20061;-60
2023/05/03 02:36:16;;;;;;;3.85;3.05;;;26.80;99.90;;;;;;4994506;28;20030;-56
2023/05/03 02:38:42;;;;;;;3.80;3.00;;;26.80;99.90;;;;;;4994578;28;20050;-59
2023/05/03 02:41:08;;;;;;;5.07;3.47;;;26.80;99.90;;;;;;4994354;28;20026;-58
2023/05/03 02:43:33;;;;;;;4.07;2.58;;;26.80;99.90;;;;;;4994240;28;20065;-58
2023/05/03 02:45:59;;;;;;;4.03;2.83;;;26.80;99.90;;;;;;4994499;28;20392;-58
2023/05/03 02:48:25;;;;;;;5.75;3.60;;;26.80;99.90;;;;;;4994497;28;20388;-58
2023/05/03 02:50:51;;;;;;;4.93;3.28;;;26.80;99.90;;;;;;4994406;28;20105;-58
2023/05/03 02:53:16;;;;;;;4.00;2.80;;;26.80;99.90;;;;;;4994268;28;20057;-58
2023/05/03 02:55:42;;;;;;;5.53;3.35;;;26.80;99.90;;;;;;4994183;28;20034;-58
2023/05/03 02:58:09;;;;;;;4.53;2.95;;;26.80;99.90;;;;;;4994084;28;20080;-58
2023/05/03 03:00:34;;;;;;;4.05;2.53;;;26.80;99.90;;;;;;4994740;28;20109;-58
2023/05/03 03:03:00;;;;;;;4.03;2.90;;;26.80;99.90;;;;;;4994007;28;20157;-58
2023/05/03 03:05:26;;;;;;;4.82;2.97;;;26.80;99.90;;;;;;4994512;28;20097;-58
2023/05/03 03:07:52;;;;;;;5.35;2.85;;;26.80;99.90;;;;;;4994183;28;20358;-57
2023/05/03 03:10:18;;;;;;;3.45;2.90;;;26.80;99.90;;;;;;4993861;28;20041;-57
2023/05/03 03:12:44;;;;;;;3.13;2.55;;;26.80;99.90;;;;;;4992616;28;20034;-58
2023/05/03 03:15:10;;;;;;;4.05;3.15;;;26.80;99.90;;;;;;4992734;28;20023;-59
2023/05/03 03:17:38;;;;;;;4.57;3.00;;;26.80;99.90;;;;;;4993518;28;20142;-59
2023/05/03 03:20:06;;;;;;;4.03;2.65;;;26.80;99.90;;;;;;4993847;28;20026;-59
2023/05/03 03:22:32;;;;;;;4.68;3.25;;;26.70;99.90;;;;;;4993797;28;20113;-59
2023/05/03 03:24:58;;;;;;;3.88;2.97;;;26.80;99.90;;;;;;5006547;28;20129;-59
2023/05/03 03:27:24;;;;;;;4.00;2.95;;;26.70;99.90;;;;;;4993902;28;20476;-59
2023/05/03 03:29:49;;;;;;;3.83;2.78;;;26.70;99.90;;;;;;4992213;28;20022;-59
2023/05/03 03:32:15;;;;;;;3.75;2.65;;;26.80;99.90;;;;;;4993716;28;20046;-59
2023/05/03 03:34:41;;;;;;;4.68;2.53;;;26.70;99.90;;;;;;4993595;28;20018;-60
2023/05/03 03:37:06;;;;;;;5.18;2.78;;;26.70;99.90;;;;;;4993555;28;20026;-60
2023/05/03 03:39:32;;;;;;;4.65;2.97;;;26.70;99.90;;;;;;4993409;28;20026;-59
2023/05/03 03:41:59;;;;;;;3.90;2.58;;;26.70;99.90;;;;;;4993607;28;20022;-59
2023/05/03 03:44:24;;;;;;;5.07;2.80;;;26.70;99.90;;;;;;4993534;28;20022;-59
2023/05/03 03:46:50;;;;;;;3.58;2.83;;;26.70;99.90;;;;;;4993337;28;20081;-59
2023/05/03 03:49:16;;;;;;;3.47;2.50;;;26.70;99.90;;;;;;4991935;28;20031;-60
2023/05/03 03:51:42;;;;;;;4.45;2.65;;;26.70;99.90;;;;;;4993306;28;20550;-60
2023/05/03 03:54:07;;;;;;;4.07;2.80;;;26.60;99.90;;;;;;4992266;28;20026;-60
2023/05/03 03:56:33;;;;;;;4.20;2.92;;;26.70;99.90;;;;;;4993313;28;20384;-59
2023/05/03 03:58:59;;;;;;;4.90;2.50;;;26.70;99.90;;;;;;4991869;28;20019;-60
2023/05/03 04:01:25;;;;;;;3.70;2.80;;;26.70;99.90;;;;;;4999402;28;20038;-59
2023/05/03 04:03:51;;;;;;;3.42;2.13;;;26.70;99.90;;;;;;4999536;28;20074;-59
2023/05/03 04:06:17;;;;;;;3.55;3.08;;;26.60;99.90;;;;;;4993063;28;20436;-58
2023/05/03 04:08:43;;;;;;;3.72;2.55;;;26.60;99.90;;;;;;4992985;28;20119;-58
2023/05/03 04:11:12;;;;;;;4.03;2.58;;;26.60;99.90;;;;;;4992627;28;20026;-58
2023/05/03 04:13:38;;;;;;;3.42;2.47;;;26.60;99.90;;;;;;4992690;28;20030;-59
2023/05/03 04:16:05;;;;;;;3.22;2.28;;;26.60;99.90;;;;;;4992579;28;20058;-58
2023/05/03 04:18:31;;;;;;;;;;;26.60;99.90;;;;;;4993112;28;20033;-57
2023/05/03 04:20:57;;;;;;;3.22;2.40;;;26.60;99.90;;;;;;4992969;28;19905;-58
2023/05/03 04:23:22;;;;;;;3.70;2.85;;;26.60;99.90;;;;;;4992772;28;20110;-58
2023/05/03 04:25:48;;;;;;;7.90;2.90;;;26.60;99.90;;;;;;4992640;28;20014;-58
2023/05/03 04:28:14;;;;;;;4.10;2.45;;;26.60;99.90;;;;;;4992816;28;20037;-58
2023/05/03 04:30:46;;;;;;;3.22;2.47;;;26.60;99.90;;;;;;4992527;28;20058;-58
2023/05/03 04:33:12;;;;;;;4.90;2.63;;;26.60;99.90;;;;;;4992431;28;20120;-58
2023/05/03 04:35:39;;;;;;;3.45;2.65;;;26.60;99.90;;;;;;4992393;28;20022;-59
2023/05/03 04:38:04;;;;;;;4.10;2.78;;;26.60;99.90;;;;;;4992586;28;20034;-58
2023/05/03 04:40:30;;;;;;;3.65;2.60;;;26.60;99.90;;;;;;4992358;28;20069;-59
2023/05/03 04:42:56;;;;;;;4.40;3.17;;;26.50;99.90;;;;;;4991339;28;20022;-59
2023/05/03 04:45:22;;;;;;;4.47;2.70;;;26.50;99.90;;;;;;4992310;28;20030;-59
2023/05/03 04:47:48;;;;;;;4.35;2.80;;;26.50;99.90;;;;;;4992167;28;20018;-60
2023/05/03 04:50:15;;;;;;;3.20;2.35;;;26.60;99.90;;;;;;4992276;28;20026;-59
2023/05/03 04:52:41;;;;;;;5.68;3.05;;;26.50;99.90;;;;;;4992252;28;20384;-59
2023/05/03 04:55:07;;;;;;;4.00;2.60;;;26.50;99.90;;;;;;4992241;28;20077;-59
2023/05/03 04:57:33;;;;;;;4.57;2.70;;;26.50;99.90;;;;;;4992119;28;20407;-59
2023/05/03 05:00:00;;;;;;;3.88;2.67;;;26.50;99.90;;;;;;4991234;28;20026;-58
2023/05/03 05:02:26;;;;;;;4.82;2.95;;;26.50;99.90;;;;;;4992167;28;20050;-58
2023/05/03 05:04:52;;;;;;;6.88;2.92;;;26.50;99.90;;;;;;4992851;28;20105;-59
2023/05/03 05:07:18;;;;;;;3.40;2.80;;;26.50;99.90;;;;;;5008079;28;20029;-58
2023/05/03 05:09:44;;;;;;;4.80;2.67;;;26.50;99.90;;;;;;4997246;28;20489;-58
2023/05/03 05:12:10;;;;;;;4.00;2.55;;;26.50;99.90;;;;;;4996231;28;20388;-57
2023/05/03 05:14:36;;;;;;;5.03;2.22;;;26.50;99.90;;;;;;4996095;28;20495;-57
2023/05/03 05:17:02;;;;;;;4.68;2.78;;;26.50;99.90;;;;;;4995995;28;20030;-57
2023/05/03 05:19:28;;;;;;;3.40;2.50;;;26.40;99.90;;;;;;4996078;28;20027;-58
2023/05/03 05:21:54;;;;;;;4.55;2.75;;;26.50;99.90;;;;;;4994757;28;20022;-57
2023/05/03 05:24:20;;;;;;;5.70;3.15;;;26.50;99.90;;;;;;4995666;28;20373;-58
2023/05/03 05:26:46;;;;;;;5.47;2.63;;;26.40;99.90;;;;;;4995745;28;20018;-58
2023/05/03 05:29:12;;;;;;;6.38;3.08;;;26.40;99.90;;;;;;4996021;28;20030;-58
2023/05/03 05:31:37;;;;;;;3.55;2.35;;;26.40;99.90;;;;;;4995321;28;20031;-58
2023/05/03 05:34:03;;;;;;;5.05;2.67;;;26.50;99.90;;;;;;4995646;28;20031;-58
2023/05/03 05:36:30;;;;;;;3.83;2.85;;;26.40;99.90;;;;;;4995796;28;20027;-59
2023/05/03 05:38:56;;;;;;;2.83;2.20;;;26.40;99.90;;;;;;4995803;28;20348;-58
2023/05/03 05:41:22;;;;;;;3.80;2.60;;;26.40;99.90;;;;;;4995269;28;20382;-59
2023/05/03 05:43:47;;;;;;;4.25;2.28;;;26.40;99.90;;;;;;4995663;28;20026;-58
2023/05/03 05:46:13;;;;;;;3.58;1.98;;;26.40;99.90;;;;;;4995379;28;20034;-58
2023/05/03 05:48:40;;;;;;;5.50;2.97;;;26.40;99.90;;;;;;4995489;28;20018;-60
2023/05/03 05:51:06;;;;;;;2.67;1.88;;;26.40;99.90;;;;;;4995185;28;20170;-59
2023/05/03 05:53:32;;;;;;;3.85;2.40;;;26.40;99.90;;;;;;4995655;28;20538;-59
2023/05/03 05:55:58;;;;;;;4.13;1.90;;;26.40;99.90;;;;;;4995349;28;20030;-58
2023/05/03 05:58:24;;;;;;;4.55;2.03;;;26.40;99.90;;;;;;4995324;28;20392;-58
2023/05/03 06:00:50;;;;;;;4.22;2.00;;;26.40;99.90;;;;;;4995056;28;20042;-59
2023/05/03 06:03:16;;;;;;;3.90;1.90;;;26.40;99.90;;;;;;4995151;28;20026;-58
2023/05/03 06:05:42;;;;;;;4.05;1.90;;;26.40;99.90;;;;;;4994018;28;20381;-59
2023/05/03 06:08:08;;;;;;;5.30;2.30;;;26.40;99.90;;;;;;4993949;28;20034;-58
2023/05/03 06:10:33;;;;;;;6.50;2.17;;;26.40;99.90;;;;;;4994917;28;20571;-58
2023/05/03 06:13:02;;;;;;;4.53;2.15;;;26.40;99.90;;;;;;4993981;28;20141;-59
2023/05/03 06:15:28;;;;;;;3.50;1.77;;;26.40;99.90;;;;;;4995293;28;20092;-59
2023/05/03 06:17:54;;;;;;;3.00;2.10;;;26.40;99.90;;;;;;4993873;28;20034;-59
2023/05/03 06:20:22;;;;;;;4.38;2.17;;;26.40;99.90;;;;;;4995108;28;20101;-59
2023/05/03 06:22:48;;;;;;;3.85;1.85;;;26.40;99.90;;;;;;4996501;28;20018;-59
2023/05/03 06:25:14;;;;;;;4.10;2.03;;;26.40;99.90;;;;;;5006294;28;20106;-59
2023/05/03 06:27:40;;;;;;;3.10;2.13;;;26.40;99.90;;;;;;4993439;28;20556;-59
2023/05/03 06:30:07;;;;;;;3.08;2.05;;;26.40;99.90;;;;;;4994871;28;20073;-59
2023/05/03 06:32:32;;;;;;;3.30;2.10;;;26.40;99.90;;;;;;4994811;28;20070;-59
2023/05/03 06:34:58;;;;;;;4.85;2.38;;;26.40;99.90;;;;;;4994607;28;20055;-59
2023/05/03 06:37:25;;;;;;;4.43;2.45;;;26.40;99.90;;;;;;4994645;28;20030;-59
2023/05/03 06:39:51;;;;;;;4.68;2.58;;;26.40;99.90;;;;;;4994346;28;20015;-60
2023/05/03 06:42:16;;;;;;;5.32;1.67;;;26.40;99.90;;;;;;4994441;28;20109;-59
2023/05/03 06:44:42;;;;;;;3.08;1.70;;;26.40;99.90;;;;;;4994495;28;20023;-59
2023/05/03 06:47:08;;;;;;;3.40;2.00;;;26.40;99.90;;;;;;4994391;28;20026;-59
2023/05/03 06:49:34;;;;;;;3.88;2.20;;;26.40;99.90;;;;;;4994384;28;20153;-60
2023/05/03 06:52:00;;;;;;;2.80;2.03;;;26.40;99.90;;;;;;4994080;28;20472;-59
2023/05/03 06:54:25;;;;;;;4.50;2.20;;;26.40;99.90;;;;;;4993965;28;20031;-59
2023/05/03 06:56:51;;;;;;;5.90;2.47;;;26.40;99.90;;;;;;4994355;28;20481;-60
2023/05/03 06:59:17;;;;;;;4.47;2.22;;;26.40;99.90;;;;;;4994096;28;20385;-58
2023/05/03 07:01:43;;;;;;;4.20;2.08;;;26.40;99.90;;;;;;4994018;28;20554;-61
2023/05/03 07:04:08;;;;;;;3.25;1.92;;;26.40;99.90;;;;;;5006803;28;20026;-58
2023/05/03 07:06:34;;;;;;;3.25;2.00;;;26.40;99.90;;;;;;4994586;28;20030;-59
2023/05/03 07:09:00;;;;;;;4.72;2.40;;;26.40;99.90;;;;;;4994132;28;20061;-59
2023/05/03 07:11:26;;;;;;;4.45;1.92;;;26.40;99.90;;;;;;4993571;28;20448;-60
2023/05/03 07:13:53;;;;;;;3.92;2.08;;;26.40;99.90;;;;;;4994012;28;20027;-59
2023/05/03 07:16:19;;;;;;;4.78;2.13;;;26.40;99.90;;;;;;4993912;28;20027;-59
2023/05/03 07:18:46;;;;;;;4.57;2.00;;;26.50;99.90;;;;;;4993637;28;20089;-59
2023/05/03 07:21:12;;;;;;;6.10;2.17;;;26.50;99.90;;;;;;4993779;28;20018;-58
2023/05/03 07:23:38;;;;;;;9.85;2.33;;;26.40;99.90;;;;;;4993789;28;20029;-59
2023/05/03 07:26:04;;;;;;;6.63;1.30;;;26.40;99.90;;;;;;4993573;28;20109;-59
2023/05/03 07:28:30;;;;;;;7.43;4.53;;;26.40;99.90;;;;;;4992208;28;20460;-57
2023/05/03 07:30:57;;;;;;;5.60;2.42;;;26.30;99.90;;;;;;4993657;28;20105;-57
2023/05/03 07:33:22;;;;;;;10.50;3.47;;;26.20;99.90;;;;;;4993424;28;20030;-58
2023/05/03 07:35:49;;;;;;;8.25;2.78;;;26.10;99.90;;;;;;4980280;28;20014;-58
2023/05/03 07:38:15;;;;;;;9.13;2.93;;;26.10;99.90;;;;;;4993391;28;20042;-58
2023/05/03 07:40:41;;;;;;;7.53;2.78;;;26.00;99.90;;;;;;4993090;28;20472;-57
2023/05/03 07:43:10;;;;;;;7.05;2.45;;;25.90;99.90;;;;;;4993739;28;20030;-58
2023/05/03 07:45:37;;;;;;;6.70;1.83;;;25.90;99.90;;;;;;4993433;28;20014;-59
2023/05/03 07:48:03;;;;;;;5.35;2.55;;;25.80;99.90;;;;;;4995937;28;20083;-59
2023/05/03 07:50:30;;;;;;;11.35;4.10;;;25.80;99.90;;;;;;5000014;28;20019;-59
2023/05/03 07:52:56;;;;;;;4.13;2.50;;;25.80;99.90;;;;;;4985192;28;20022;-58
2023/05/03 07:55:22;;;;;;;10.25;5.10;;;25.70;99.90;;;;;;4990477;28;20022;-58
2023/05/03 07:57:48;;;;;;;13.65;5.20;;;25.70;99.90;;;;;;4987864;28;20041;-59
2023/05/03 08:00:16;;;;;;;17.15;8.43;;;25.70;99.90;;;;;;4990621;28;20026;-60
2023/05/03 08:02:42;;;;;;;6.75;4.35;;;25.70;99.90;;;;;;4990639;28;20045;-59
2023/05/03 08:05:09;;;;;;;3.90;2.15;;;25.70;99.90;;;;;;4989607;28;20038;-59
2023/05/03 08:07:35;;;;;;;5.53;2.25;;;25.60;99.90;;;;;;4989934;28;20527;-61
2023/05/03 08:10:01;;;;;;;10.55;3.80;;;25.60;99.90;;;;;;4990906;28;20046;-62
2023/05/03 08:12:27;;;;;;;5.30;2.53;;;25.50;99.90;;;;;;4990199;28;20066;-63
2023/05/03 08:14:54;;;;;;;6.75;3.17;;;25.40;99.90;;;;;;4989062;28;20538;-60
2023/05/03 08:17:21;;;;;;;7.57;2.43;;;25.40;99.90;;;;;;4990297;28;20040;-61
2023/05/03 08:19:47;;;;;;;4.80;2.60;;;25.40;99.90;;;;;;4989249;28;20632;-61
2023/05/03 08:22:13;;;;;;;6.45;1.70;;;25.40;99.90;;;;;;4989442;28;20042;-58
2023/05/03 08:24:39;;;;;;;9.93;3.90;;;25.50;99.90;;;;;;4990313;28;20061;-59
2023/05/03 08:27:06;;;;;;;7.03;3.33;;;25.50;99.90;;;;;;4990581;28;20108;-60
2023/05/03 08:29:35;;;;;;;4.40;3.20;;;25.40;99.90;;;;;;4990089;28;20019;-60
2023/05/03 08:32:03;;;;;;;4.97;2.67;;;25.50;99.90;;;;;;4990151;28;20046;-60
2023/05/03 08:34:29;;;;;;;5.88;2.60;;;25.50;99.90;;;;;;4992961;28;20080;-60
2023/05/03 08:36:55;;;;;;;4.20;2.47;;;25.60;99.90;;;;;;4988486;28;20030;-60
2023/05/03 08:39:25;;;;;;;5.38;2.38;;;25.60;99.90;;;;;;4990097;28;20101;-60
2023/05/03 08:41:53;;;;;;;8.48;1.73;;;25.60;99.90;;;;;;4989628;28;20022;-59
2023/05/03 08:44:24;;;;;;;4.10;2.42;;;25.70;99.90;;;;;;4989622;28;20361;-59
2023/05/03 08:46:50;;;;;;;7.20;2.75;;;25.70;99.90;;;;;;4990100;28;20445;-59
2023/05/03 08:49:17;;;;;;;6.28;2.88;;;25.80;99.90;;;;;;4989940;28;20061;-58
2023/05/03 08:51:48;;;;;;;4.47;2.30;;;25.80;99.90;;;;;;4990027;28;20069;-59
2023/05/03 08:54:19;;;;;;;4.40;2.33;;;25.80;99.90;;;;;;4988192;28;20588;-60
2023/05/03 08:56:46;;;;;;;6.38;2.50;;;25.80;99.90;;;;;;4988262;28;20052;-60
2023/05/03 08:59:12;;;;;;;7.17;3.30;;;25.90;99.90;;;;;;4988313;28;20081;-60
2023/05/03 09:01:39;;;;;;;5.93;2.22;;;25.90;99.90;;;;;;4989838;28;20280;-61
2023/05/03 09:04:06;;;;;;;4.65;2.22;;;25.90;99.90;;;;;;4989811;28;20034;-60
2023/05/03 09:06:33;;;;;;;5.45;2.40;;;25.90;99.90;;;;;;4990218;28;20488;-60
2023/05/03 09:09:01;;;;;;;5.90;2.20;;;25.90;99.90;;;;;;4989560;28;20444;-60
2023/05/03 09:11:30;;;;;;;6.35;2.17;;;26.00;99.90;;;;;;4989724;28;20121;-61
2023/05/03 09:14:09;;;;;;;6.30;2.05;;;26.00;99.90;;;;;;4989863;28;20030;-61
2023/05/03 09:16:35;;;;;;;5.82;1.60;;;26.00;99.90;;;;;;4988785;28;20026;-61
2023/05/03 09:19:07;;;;;;;5.18;1.80;;;26.00;99.90;;;;;;4989413;28;20035;-60
2023/05/03 09:21:34;;;;;;;4.43;2.25;;;26.00;99.90;;;;;;4989853;28;20129;-61
2023/05/03 09:24:02;;;;;;;5.70;2.47;;;26.00;99.90;;;;;;4989838;28;20084;-60
2023/05/03 09:26:33;;;;;;;4.88;2.25;;;26.00;99.90;;;;;;4989812;28;20034;-61
2023/05/03 09:29:00;;;;;;;6.13;2.42;;;26.00;99.90;;;;;;4988667;28;20042;-61
2023/05/03 09:31:28;;;;;;;2.95;1.98;;;26.00;99.90;;;;;;4989937;28;20034;-59
2023/05/03 09:33:55;;;;;;;7.82;2.75;;;26.10;99.90;;;;;;4989397;28;20038;-60
2023/05/03 09:36:21;;;;;;;4.22;1.80;;;26.10;99.90;;;;;;4989380;28;20492;-60
2023/05/03 09:38:47;;;;;;;5.57;1.75;;;26.10;99.90;;;;;;4988086;28;20026;-65
2023/05/03 09:41:14;;;;;;;7.93;1.98;;;26.10;99.90;;;;;;4987929;28;20031;-58
2023/05/03 09:43:51;;;;;;;9.70;2.30;;;26.10;99.90;;;;;;4989881;28;20018;-56
2023/05/03 09:46:17;;;;;;;6.75;1.70;;;26.00;99.90;;;;;;4989768;28;20484;-56
2023/05/03 09:48:44;;;;;;;4.85;1.55;;;26.00;99.90;;;;;;4988676;28;20041;-56
2023/05/03 09:51:11;;;;;;;3.35;1.52;;;26.00;99.90;;;;;;4989442;28;20172;-57
2023/05/03 09:53:38;;;;;;;6.82;1.63;;;25.90;99.90;;;;;;4990043;28;20462;-53
2023/05/03 09:56:08;;;;;;;4.53;1.33;;;25.90;99.90;;;;;;4991852;28;20065;-52
2023/05/03 09:58:35;;;;;;;5.45;1.42;;;25.80;99.90;;;;;;4991958;28;20445;-53
2023/05/03 10:01:01;;;;;;;6.10;1.25;;;25.80;99.90;;;;;;4993038;28;20050;-53
2023/05/03 10:03:40;;;;;;;5.53;1.60;;;25.90;99.90;;;;;;4992568;28;20109;-52
2023/05/03 10:06:34;;;;;;;3.70;1.50;;;25.90;99.90;;;;;;4992989;28;20488;-52
2023/05/03 10:09:04;;;;;;;4.60;1.52;;;25.90;99.90;;;;;;4991970;28;20047;-56
2023/05/03 10:11:33;;;;;;;5.28;1.00;;;25.90;99.90;;;;;;4992790;28;20041;-56
2023/05/03 10:13:59;;;;;;;7.07;1.50;;;25.90;99.90;;;;;;4991204;28;20109;-56
2023/05/03 10:16:35;;;;;;;2.58;1.55;;;25.80;99.90;;;;;;4992705;28;20447;-56
2023/05/03 10:19:36;;;;;;;3.33;0.88;;;25.80;99.90;;;;;;4992866;28;20034;-56
2023/05/03 10:22:10;;;;;;;11.15;2.53;;;25.80;99.90;;;;;;4990701;28;20031;-54
2023/05/03 10:24:37;;;;;;;2.55;1.38;;;25.70;99.90;;;;;;4992248;28;20435;-54
2023/05/03 10:27:07;;;;;;;7.35;2.95;;;25.80;99.90;;;;;;4992257;28;20030;-54
2023/05/03 10:29:46;;;;;;;8.20;1.75;;;25.80;99.90;;;;;;4992397;28;20089;-54
2023/05/03 10:32:41;;;;;;;3.47;1.50;;;25.80;99.90;;;;;;4989237;28;20034;-54
2023/05/03 10:35:15;;;;;;;5.30;2.35;;;25.90;99.90;;;;;;4989741;28;20405;-54
2023/05/03 10:37:42;;;;;;;3.60;1.50;;;25.90;99.90;;;;;;4992360;28;20007;-55
2023/05/03 10:40:10;;;;;;;3.30;1.65;;;26.00;99.90;;;;;;4990687;28;20029;-54
2023/05/03 10:42:44;;;;;;;2.42;1.20;;;26.00;99.90;;;;;;4992726;28;20507;-55
2023/05/03 10:45:21;;;;;;;7.95;1.23;;;26.00;99.90;;;;;;4989649;28;20080;-55
2023/05/03 10:48:11;;;;;;;7.90;1.40;;;26.00;99.90;;;;;;4986564;28;20451;-56
2023/05/03 10:50:41;;;;;;;5.63;1.20;;;26.00;99.90;;;;;;4988621;28;20046;-55
2023/05/03 10:53:09;;;;;;;4.10;0.82;;;26.10;99.90;;;;;;4988870;28;20046;-55
2023/05/03 10:55:35;;;;;;;4.65;1.17;;;26.10;99.90;;;;;;4987003;28;20034;-55
2023/05/03 10:58:02;;;;;;;8.10;1.58;;;26.00;99.90;;;;;;4985890;28;20042;-54
2023/05/03 11:00:32;;;;;;;4.80;1.10;;;26.00;99.90;;;;;;4991413;28;20026;-54
2023/05/03 11:03:20;;;;;;;6.20;2.15;;;26.00;99.90;;;;;;4990810;28;20034;-54
2023/05/03 11:05:50;;;;;;;7.38;1.30;;;26.00;99.90;;;;;;4992355;28;20400;-55
2023/05/03 11:08:17;;;;;;;6.95;1.33;;;26.00;99.90;;;;;;4991639;28;20026;-56
2023/05/03 11:10:47;;;;;;;4.13;1.30;;;26.00;99.90;;;;;;4991888;28;20062;-55
2023/05/03 11:13:13;;;;;;;3.60;1.15;;;26.00;99.90;;;;;;4986126;28;20053;-52
2023/05/03 11:15:39;;;;;;;4.65;1.50;;;25.90;99.90;;;;;;4991390;28;20031;-53
2023/05/03 11:18:06;;;;;;;4.43;1.10;;;25.90;99.90;;;;;;4982446;28;20026;-54
2023/05/03 11:20:32;;;;;;;5.75;1.52;;;25.80;99.90;;;;;;4990345;28;20373;-54
2023/05/03 11:22:59;;;;;;;11.27;2.00;;;25.80;99.90;;;;;;4990483;28;20046;-55
2023/05/03 11:25:25;;;;;;;4.47;1.52;;;25.80;99.90;;;;;;4989374;28;20350;-54
2023/05/03 11:27:51;;;;;;;7.28;1.15;;;25.70;99.90;;;;;;4991630;28;20027;-54
2023/05/03 11:30:17;;;;;;;5.13;1.33;;;25.60;99.90;;;;;;4991486;28;20037;-55
2023/05/03 11:32:43;;;;;;;3.20;1.15;;;25.60;99.90;;;;;;4989727;28;20507;-55
2023/05/03 11:35:14;;;;;;;4.75;1.40;;;25.60;99.90;;;;;;4990322;28;20109;-55
2023/05/03 11:37:42;;;;;;;5.10;1.27;;;25.60;99.90;;;;;;4991167;28;20026;-55
2023/05/03 11:40:15;;;;;;;3.03;0.82;;;25.60;99.90;;;;;;4990338;28;20306;-55
2023/05/03 11:42:52;;;;;;;5.22;1.50;;;25.60;99.90;;;;;;4991111;28;20018;-55
2023/05/03 11:45:39;;;;;;;4.50;1.20;;;25.60;99.90;;;;;;4991230;28;20034;-56
2023/05/03 11:48:05;;;;;;;7.20;2.88;;;25.70;99.90;;;;;;4988634;28;20093;-55
2023/05/03 11:50:55;;;;;;;5.45;2.08;;;25.70;99.90;;;;;;4991107;28;20022;-57
2023/05/03 11:53:25;;;;;;;6.30;2.20;;;25.70;99.90;;;;;;4989275;28;20376;-55
2023/05/03 11:55:54;;;;;;;5.60;1.92;;;25.70;99.90;;;;;;4988663;28;20030;-56
2023/05/03 11:58:25;;;;;;;4.75;2.63;;;25.70;99.90;;;;;;4990152;28;20421;-55
2023/05/03 12:00:54;;;;;;;5.80;1.30;;;25.70;99.90;;;;;;4990269;28;20133;-55
2023/05/03 12:03:20;;;;;;;7.00;2.58;;;25.70;99.90;;;;;;4987452;28;20048;-54
2023/05/03 12:05:47;;;;;;;6.65;1.35;;;25.70;99.90;;;;;;4988514;28;20029;-54
2023/05/03 12:08:15;;;;;;;5.20;1.40;;;25.70;99.90;;;;;;4990686;28;20049;-54
2023/05/03 12:10:41;;;;;;;10.07;3.97;;;25.70;99.90;;;;;;4990438;28;20065;-54
2023/05/03 12:13:06;;;;;;;6.07;2.30;;;25.70;99.90;;;;;;4990016;28;20094;-54
2023/05/03 12:15:36;;;;;;;7.05;2.30;;;25.70;99.90;;;;;;4990126;28;20018;-54
2023/05/03 12:18:06;;;;;;;5.85;1.58;;;25.70;99.90;;;;;;4989431;28;20066;-54
2023/05/03 12:20:32;;;;;;;6.00;1.50;;;25.80;99.90;;;;;;4990564;28;20031;-54
2023/05/03 12:23:01;;;;;;;3.65;1.00;;;25.70;99.90;;;;;;4990676;28;20038;-53
2023/05/03 12:25:28;;;;;;;7.60;1.85;;;25.70;99.90;;;;;;4990458;28;20022;-53
2023/05/03 12:27:57;;;;;;;7.25;1.95;;;25.70;99.90;;;;;;4990810;28;20027;-55
2023/05/03 12:30:23;;;;;;;4.38;1.48;;;25.80;99.90;;;;;;4987525;28;20026;-56
2023/05/03 12:32:49;;;;;;;7.15;1.50;;;25.80;99.90;;;;;;4988794;28;20117;-55
2023/05/03 12:35:15;;;;;;;7.07;3.08;;;25.80;99.90;;;;;;4987020;28;20068;-55
2023/05/03 12:37:41;;;;;;;8.27;3.35;;;25.80;99.90;;;;;;4987840;28;20118;-56
2023/05/03 12:40:07;;;;;;;3.60;1.70;;;25.80;99.90;;;;;;4987550;28;20113;-55
2023/05/03 12:42:33;;;;;;;6.28;2.42;;;25.90;99.90;;;;;;4989253;28;20865;-56
2023/05/03 12:44:59;;;;;;;6.10;1.33;;;25.90;99.90;;;;;;4987702;28;20046;-55
2023/05/03 12:47:26;;;;;;;4.55;1.25;;;26.00;99.90;;;;;;4989954;28;20492;-56
2023/05/03 12:49:52;;;;;;;7.97;1.45;;;25.90;99.90;;;;;;4990093;28;20427;-56